Time;durP1;ratioP1;P1;durP2;ratioP2;P2;SDS_P1;SDS_P2;PMS_P1;PMS_P2;Temp;Humidity;BMP_temperature;BMP_pressure;BME280_temperature;BME280_humidity;BME280_pressure;Samples;Min_cycle;Max_cycle;Signal;HPM_P1;HPM_P2
2022/07/05 00:00:32;;;;;;;;;;;;;;;25.78;62.57;99353.31;5053174;28;19925;-52
2022/07/05 00:02:57;;;;;;;;;;;;;;;25.55;61.81;99360.63;5053480;28;19974;-52
2022/07/05 00:05:22;;;;;;;;;;;;;;;25.36;62.61;99359.63;5054719;28;19959;-51
2022/07/05 00:07:47;;;;;;;;;;;;;;;25.67;61.60;99367.44;5054756;28;19986;-48
2022/07/05 00:10:12;;;;;;;;;;;;;;;25.96;61.20;99367.50;5053716;28;21131;-50
2022/07/05 00:12:38;;;;;;;;;;;;;;;25.64;63.24;99363.28;5054392;28;19989;-49
2022/07/05 00:15:03;;;;;;;;;;;;;;;25.70;63.16;99363.69;5052666;28;19977;-48
2022/07/05 00:17:28;;;;;;;;;;;;;;;25.79;62.81;99361.06;5054294;28;19927;-48
2022/07/05 00:19:54;;;;;;;;;;;;;;;25.90;61.44;99367.22;5052487;28;19924;-51
2022/07/05 00:22:20;;;;;;;;;;;;;;;25.82;61.29;99371.38;5053571;28;20122;-51
2022/07/05 00:24:45;;;;;;;;;;;;;;;25.85;61.82;99371.06;5050954;28;19923;-50
2022/07/05 00:27:10;;;;;;;;;;;;;;;25.93;62.14;99372.22;5052535;28;19968;-48
2022/07/05 00:29:36;;;;;;;;;;;;;;;25.53;63.96;99375.75;5050144;28;20748;-48
2022/07/05 00:32:01;;;;;;;;;;;;;;;25.86;63.31;99378.03;5054090;28;19991;-48
2022/07/05 00:34:26;;;;;;;;;;;;;;;25.84;62.49;99372.06;5053064;28;19947;-51
2022/07/05 00:36:51;;;;;;;;;;;;;;;25.81;62.83;99380.22;5052741;28;19916;-52
2022/07/05 00:39:17;;;;;;;;;;;;;;;25.66;63.19;99379.81;5050954;28;20005;-49
2022/07/05 00:41:42;;;;;;;;;;;;;;;25.75;62.75;99386.06;5053558;28;19971;-48
2022/07/05 00:44:08;;;;;;;;;;;;;;;25.66;62.31;99394.81;5051934;28;19951;-49
2022/07/05 00:46:33;;;;;;;;;;;;;;;25.72;61.97;99382.88;5054592;28;20289;-51
2022/07/05 00:48:59;;;;;;;;;;;;;;;25.65;62.63;99388.69;5051061;28;19981;-51
2022/07/05 00:51:25;;;;;;;;;;;;;;;25.51;63.82;99385.59;5054001;28;19916;-50
2022/07/05 00:53:50;;;;;;;;;;;;;;;25.52;63.00;99384.63;5053445;28;20003;-49
2022/07/05 00:56:16;;;;;;;;;;;;;;;25.50;63.02;99386.56;5054140;28;20541;-48
2022/07/05 00:58:42;;;;;;;;;;;;;;;25.42;63.37;99385.44;5050790;28;19920;-49
2022/07/05 01:01:08;;;;;;;;;;;;;;;25.27;63.77;99381.50;5053380;28;19931;-50
2022/07/05 01:03:34;;;;;;;;;;;;;;;25.01;64.07;99381.94;5051908;28;20112;-49
2022/07/05 01:06:03;;;;;;;;;;;;;;;24.83;65.36;99381.69;5053469;28;19921;-49
2022/07/05 01:08:29;;;;;;;;;;;;;;;24.73;65.73;99377.38;5053520;28;19959;-49
2022/07/05 01:10:57;;;;;;;;;;;;;;;24.27;66.57;99386.44;5047604;28;20019;-49
2022/07/05 01:13:22;;;;;;;;;;;;;;;23.78;69.54;99386.03;5052746;28;19920;-48
2022/07/05 01:15:48;;;;;;;;;;;;;;;23.58;71.53;99390.22;5052473;28;19927;-48
2022/07/05 01:18:13;;;;;;;;;;;;;;;23.57;72.55;99381.50;5051129;28;19924;-52
2022/07/05 01:20:38;;;;;;;;;;;;;;;23.26;73.90;99384.88;5051718;28;19924;-49
2022/07/05 01:23:03;;;;;;;;;;;;;;;23.70;72.73;99372.66;5051594;28;19920;-48
2022/07/05 01:25:29;;;;;;;;;;;;;;;23.86;72.08;99372.28;5053696;28;19916;-48
2022/07/05 01:27:55;;;;;;;;;;;;;;;23.86;71.65;99374.91;5050077;28;19912;-52
2022/07/05 01:30:20;;;;;;;;;;;;;;;23.68;71.89;99372.75;5051717;28;19920;-48
2022/07/05 01:32:46;;;;;;;;;;;;;;;23.32;74.60;99379.97;5053484;28;19946;-48
2022/07/05 01:35:11;;;;;;;;;;;;;;;22.79;76.93;99379.72;5052090;28;20463;-48
2022/07/05 01:37:36;;;;;;;;;;;;;;;23.09;79.24;99378.34;5051109;28;19921;-50
2022/07/05 01:40:02;;;;;;;;;;;;;;;22.85;80.50;99375.78;5049986;28;20043;-50
2022/07/05 01:42:28;;;;;;;;;;;;;;;22.84;82.29;99374.94;5051871;28;20652;-49
2022/07/05 01:44:53;;;;;;;;;;;;;;;22.89;84.37;99385.94;5050850;28;19951;-49
2022/07/05 01:47:18;;;;;;;;;;;;;;;22.80;84.24;99384.00;5050627;28;19960;-49
2022/07/05 01:49:44;;;;;;;;;;;;;;;23.22;84.05;99376.44;5049960;28;19948;-49
2022/07/05 01:52:10;;;;;;;;;;;;;;;23.52;82.34;99385.47;5051980;28;19960;-51
2022/07/05 01:54:36;;;;;;;;;;;;;;;23.34;82.58;99383.34;5051202;28;20031;-51
2022/07/05 01:57:01;;;;;;;;;;;;;;;23.11;86.73;99393.03;5051483;28;20142;-51
2022/07/05 01:59:27;;;;;;;;;;;;;;;22.95;88.31;99398.59;5047354;28;19971;-50
2022/07/05 02:01:52;;;;;;;;;;;;;;;23.37;87.00;99383.06;5050372;28;19932;-51
2022/07/05 02:04:17;;;;;;;;;;;;;;;23.35;87.08;99387.63;5051963;28;19985;-50
2022/07/05 02:06:45;;;;;;;;;;;;;;;23.32;87.17;99390.50;5051716;28;19978;-48
2022/07/05 02:09:10;;;;;;;;;;;;;;;23.00;89.01;99398.28;5049101;28;20012;-48
2022/07/05 02:11:35;;;;;;;;;;;;;;;23.32;89.92;99395.75;5051014;28;19920;-49
2022/07/05 02:14:00;;;;;;;;;;;;;;;23.46;88.48;99396.47;5049906;28;19959;-49
2022/07/05 02:16:26;;;;;;;;;;;;;;;23.46;88.85;99391.22;5052865;28;19921;-51
2022/07/05 02:18:51;;;;;;;;;;;;;;;23.47;89.46;99393.72;5051405;28;19927;-50
2022/07/05 02:21:17;;;;;;;;;;;;;;;22.95;91.30;99398.59;5052482;28;20358;-49
2022/07/05 02:23:42;;;;;;;;;;;;;;;22.98;92.19;99402.78;5052068;28;19928;-50
2022/07/05 02:26:07;;;;;;;;;;;;;;;23.21;92.31;99402.81;5052356;28;19916;-51
2022/07/05 02:28:32;;;;;;;;;;;;;;;23.41;89.45;99393.38;5052466;28;20280;-49
2022/07/05 02:30:57;;;;;;;;;;;;;;;22.89;90.21;99393.81;5050819;28;19931;-50
2022/07/05 02:33:23;;;;;;;;;;;;;;;22.91;93.07;99389.28;5052439;28;19943;-50
2022/07/05 02:35:48;;;;;;;;;;;;;;;23.36;91.03;99384.06;5052768;28;19921;-49
2022/07/05 02:38:13;;;;;;;;;;;;;;;23.85;88.18;99386.38;5053715;28;19927;-48
2022/07/05 02:40:38;;;;;;;;;;;;;;;24.12;86.66;99386.75;5049710;28;20045;-51
2022/07/05 02:43:04;;;;;;;;;;;;;;;24.06;85.06;99394.31;5056333;28;19928;-48
2022/07/05 02:45:29;;;;;;;;;;;;;;;24.13;84.17;99390.19;5054363;28;19927;-52
2022/07/05 02:47:55;;;;;;;;;;;;;;;24.11;83.86;99392.97;5056082;28;19989;-51
2022/07/05 02:50:20;;;;;;;;;;;;;;;23.74;84.54;99390.72;5055942;28;19920;-47
2022/07/05 02:52:45;;;;;;;;;;;;;;;23.53;85.81;99392.38;5055187;28;19920;-50
2022/07/05 02:55:10;;;;;;;;;;;;;;;23.25;85.85;99386.69;5056074;28;19954;-48
2022/07/05 02:57:36;;;;;;;;;;;;;;;22.91;88.06;99396.31;5055792;28;19981;-48
2022/07/05 03:00:03;;;;;;;;;;;;;;;23.37;87.77;99393.59;5053309;28;20041;-51
2022/07/05 03:02:28;;;;;;;;;;;;;;;23.83;84.71;99390.91;5056272;28;19920;-47
2022/07/05 03:04:53;;;;;;;;;;;;;;;23.78;83.47;99394.75;5056259;28;19974;-52
2022/07/05 03:07:19;;;;;;;;;;;;;;;23.50;84.07;99392.63;5056647;28;19930;-50
2022/07/05 03:09:44;;;;;;;;;;;;;;;23.02;86.31;99400.78;5054798;28;19924;-49
2022/07/05 03:12:09;;;;;;;;;;;;;;;22.85;87.93;99402.03;5055569;28;19920;-49
2022/07/05 03:14:34;;;;;;;;;;;;;;;22.92;87.23;99397.97;5054075;28;19935;-51
2022/07/05 03:17:00;;;;;;;;;;;;;;;23.33;86.12;99388.69;5055825;28;19920;-48
2022/07/05 03:19:25;;;;;;;;;;;;;;;22.95;86.99;99398.59;5055219;28;19928;-49
2022/07/05 03:21:50;;;;;;;;;;;;;;;22.34;89.59;99403.22;5055168;28;19924;-48
2022/07/05 03:24:15;;;;;;;;;;;;;;;22.41;91.46;99409.69;5053786;28;19920;-52
2022/07/05 03:26:41;;;;;;;;;;;;;;;22.59;91.96;99401.41;5055194;28;19924;-51
2022/07/05 03:29:07;;;;;;;;;;;;;;;22.90;91.09;99406.00;5054160;28;19927;-48
2022/07/05 03:31:32;;;;;;;;;;;;;;;22.77;91.62;99402.63;5055347;28;20702;-47
2022/07/05 03:33:57;;;;;;;;;;;;;;;22.67;92.94;99412.13;5054272;28;19943;-49
2022/07/05 03:36:22;;;;;;;;;;;;;;;22.75;92.78;99415.03;5056084;28;19966;-49
2022/07/05 03:38:48;;;;;;;;;;;;;;;23.02;91.39;99413.91;5054914;28;19932;-48
2022/07/05 03:41:13;;;;;;;;;;;;;;;23.09;90.85;99407.22;5051730;28;20090;-48
2022/07/05 03:43:38;;;;;;;;;;;;;;;22.51;90.89;99410.69;5054266;28;19912;-48
2022/07/05 03:46:03;;;;;;;;;;;;;;;22.45;93.93;99416.41;5052992;28;19981;-51
2022/07/05 03:48:28;;;;;;;;;;;;;;;23.00;91.27;99403.53;5052956;28;19974;-48
2022/07/05 03:50:54;;;;;;;;;;;;;;;23.12;91.42;99406.97;5055222;28;19936;-49
2022/07/05 03:53:19;;;;;;;;;;;;;;;23.01;91.30;99407.81;5052413;28;19921;-48
2022/07/05 03:55:44;;;;;;;;;;;;;;;23.03;91.00;99405.06;5055456;28;19924;-47
2022/07/05 03:58:09;;;;;;;;;;;;;;;23.13;92.48;99413.94;5054788;28;19920;-48
2022/07/05 04:00:35;;;;;;;;;;;;;;;23.49;90.29;99406.72;5053927;28;20475;-50
2022/07/05 04:03:00;;;;;;;;;;;;;;;23.48;91.59;99410.31;5055110;28;19951;-49
2022/07/05 04:05:25;;;;;;;;;;;;;;;23.15;91.66;99419.91;5054795;28;20117;-50
2022/07/05 04:07:51;;;;;;;;;;;;;;;23.17;94.48;99420.59;5053336;28;19924;-48
2022/07/05 04:10:17;;;;;;;;;;;;;;;23.38;92.50;99415.47;5050767;28;19921;-47
2022/07/05 04:12:42;;;;;;;;;;;;;;;23.34;93.82;99414.88;5054865;28;20297;-48
2022/07/05 04:15:08;;;;;;;;;;;;;;;23.43;93.40;99404.59;5054040;28;20413;-50
2022/07/05 04:17:33;;;;;;;;;;;;;;;23.59;92.02;99412.94;5055531;28;20289;-50
2022/07/05 04:19:58;;;;;;;;;;;;;;;23.57;92.62;99420.94;5052140;28;19929;-48
2022/07/05 04:22:23;;;;;;;;;;;;;;;23.44;94.85;99424.66;5055365;28;20011;-47
2022/07/05 04:27:32;;;;;;;;;;;;;;;23.63;94.20;99414.38;5056398;28;19965;-50
2022/07/05 04:29:58;;;;;;;;;;;;;;;23.57;93.12;99420.13;5054696;28;19924;-51
2022/07/05 04:32:23;;;;;;;;;;;;;;;23.57;93.97;99428.00;5056677;28;19916;-48
2022/07/05 04:34:48;;;;;;;;;;;;;;;23.62;93.38;99428.47;5053631;28;19924;-48
2022/07/05 04:37:13;;;;;;;;;;;;;;;23.44;93.26;99422.03;5054127;28;20440;-48
2022/07/05 04:39:39;;;;;;;;;;;;;;;23.55;92.00;99416.75;5052545;28;20352;-47
2022/07/05 04:42:04;;;;;;;;;;;;;;;23.65;93.14;99416.84;5055298;28;19920;-48
2022/07/05 04:44:29;;;;;;;;;;;;;;;23.25;92.71;99423.47;5054343;28;20377;-49
2022/07/05 04:46:55;;;;;;;;;;;;;;;23.45;93.29;99415.84;5054257;28;19974;-50
2022/07/05 04:49:20;;;;;;;;;;;;;;;23.55;93.39;99417.59;5051884;28;19950;-52
2022/07/05 04:51:45;;;;;;;;;;;;;;;23.67;93.32;99421.03;5052504;28;19964;-51
2022/07/05 04:54:10;;;;;;;;;;;;;;;24.09;92.53;99426.47;5055554;28;19947;-51
2022/07/05 04:56:35;;;;;;;;;;;;;;;23.97;91.62;99425.69;5053420;28;20373;-52
2022/07/05 04:59:01;;;;;;;;;;;;;;;24.13;89.58;99433.16;5051806;28;20325;-50
2022/07/05 05:01:26;;;;;;;;;;;;;;;24.42;91.15;99440.44;5053304;28;19920;-50
2022/07/05 05:03:51;;;;;;;;;;;;;;;24.54;86.96;99434.22;5052793;28;19916;-49
2022/07/05 05:06:16;;;;;;;;;;;;;;;24.39;89.45;99438.09;5053279;28;20067;-51
2022/07/05 05:08:42;;;;;;;;;;;;;;;24.16;93.68;99438.16;5054612;28;19986;-49
2022/07/05 05:11:07;;;;;;;;;;;;;;;24.68;91.18;99424.31;5052099;28;20586;-49
2022/07/05 05:13:32;;;;;;;;;;;;;;;25.09;90.54;99428.72;5053128;28;19955;-50
2022/07/05 05:15:58;;;;;;;;;;;;;;;25.16;87.82;99436.94;5050441;28;19974;-50
2022/07/05 05:18:26;;;;;;;;;;;;;;;24.67;90.17;99443.72;5052433;28;19920;-48
2022/07/05 05:20:52;;;;;;;;;;;;;;;24.71;88.86;99442.50;5049667;28;20035;-50
2022/07/05 05:23:17;;;;;;;;;;;;;;;24.47;90.58;99446.19;5053350;28;20407;-49
2022/07/05 05:25:42;;;;;;;;;;;;;;;25.14;87.64;99433.59;5053087;28;20064;-48
2022/07/05 05:28:07;;;;;;;;;;;;;;;24.81;87.86;99432.84;5054405;28;20143;-51
2022/07/05 05:30:33;;;;;;;;;;;;;;;25.10;89.10;99437.47;5053145;28;20436;-48
2022/07/05 05:32:58;;;;;;;;;;;;;;;25.25;87.84;99439.66;5051751;28;19964;-51
2022/07/05 05:35:23;;;;;;;;;;;;;;;25.23;86.92;99440.75;5054062;28;19927;-48
2022/07/05 05:37:50;;;;;;;;;;;;;;;25.41;87.02;99447.06;5053371;28;19916;-50
2022/07/05 05:40:15;;;;;;;;;;;;;;;25.43;88.25;99447.78;5053471;28;19994;-50
2022/07/05 05:42:40;;;;;;;;;;;;;;;25.44;87.33;99453.88;5052680;28;20448;-50
2022/07/05 05:45:06;;;;;;;;;;;;;;;25.72;88.04;99444.38;5051256;28;19933;-49
2022/07/05 05:47:31;;;;;;;;;;;;;;;25.75;84.20;99443.25;5052655;28;19927;-49
2022/07/05 05:49:56;;;;;;;;;;;;;;;25.92;86.30;99449.72;5048756;28;20419;-50
2022/07/05 05:52:22;;;;;;;;;;;;;;;26.25;84.40;99452.00;5053051;28;19928;-51
2022/07/05 05:54:47;;;;;;;;;;;;;;;26.51;82.51;99462.00;5053086;28;19920;-48
2022/07/05 05:57:12;;;;;;;;;;;;;;;26.36;80.19;99456.28;5054372;28;19912;-51
2022/07/05 05:59:37;;;;;;;;;;;;;;;26.93;81.16;99456.38;5050684;28;19929;-49
2022/07/05 06:02:03;;;;;;;;;;;;;;;27.58;79.51;99447.72;5051658;28;19927;-48
2022/07/05 06:04:28;;;;;;;;;;;;;;;27.10;73.44;99463.59;5052332;28;19931;-48
2022/07/05 06:06:53;;;;;;;;;;;;;;;27.03;73.17;99459.84;5050841;28;19924;-48
2022/07/05 06:09:18;;;;;;;;;;;;;;;25.74;77.07;99474.09;5046862;28;19934;-52
2022/07/05 06:11:43;;;;;;;;;;;;;;;26.36;74.37;99466.03;5051778;28;20362;-50
2022/07/05 06:14:09;;;;;;;;;;;;;;;24.60;82.11;99483.72;5053234;28;19921;-50
2022/07/05 06:16:34;;;;;;;;;;;;;;;24.56;84.10;99482.31;5056080;28;19920;-39
2022/07/05 06:18:59;;;;;;;;;;;;;;;24.93;79.42;99473.97;5056460;28;19916;-39
2022/07/05 06:21:25;;;;;;;;;;;;;;;24.61;81.69;99488.03;5056439;28;19920;-39
2022/07/05 06:23:50;;;;;;;;;;;;;;;23.94;87.86;99491.69;5055981;28;20550;-39
2022/07/05 06:26:15;;;;;;;;;;;;;;;24.92;84.13;99490.75;5057133;28;19916;-39
2022/07/05 06:28:41;;;;;;;;;;;;;;;25.28;83.47;99488.63;5056378;28;19931;-39
2022/07/05 06:31:06;;;;;;;;;;;;;;;24.60;83.85;99504.78;5055805;28;19921;-39
2022/07/05 06:33:31;;;;;;;;;;;;;;;24.42;84.76;99498.38;5054889;28;19927;-39
2022/07/05 06:35:56;;;;;;;;;;;;;;;24.47;85.17;99504.13;5055593;28;19921;-39
2022/07/05 06:38:21;;;;;;;;;;;;;;;25.11;78.73;99491.81;5055866;28;19938;-39
2022/07/05 06:40:47;;;;;;;;;;;;;;;24.96;84.91;99504.50;5055370;28;19920;-39
2022/07/05 06:43:13;;;;;;;;;;;;;;;24.06;83.83;99507.44;5056317;28;19976;-39
2022/07/05 06:45:38;;;;;;;;;;;;;;;25.11;81.57;99507.63;5056364;28;19976;-39
2022/07/05 06:48:07;;;;;;;;;;;;;;;23.53;89.65;99523.84;5057501;28;19916;-39
2022/07/05 06:50:35;;;;;;;;;;;;;;;24.21;89.17;99517.56;5055776;28;20003;-39
2022/07/05 06:53:00;;;;;;;;;;;;;;;25.57;81.25;99503.75;5057152;28;19928;-39
2022/07/05 06:55:25;;;;;;;;;;;;;;;24.74;82.88;99516.00;5055659;28;19916;-39
2022/07/05 06:57:58;;;;;;;;;;;;;;;25.26;80.54;99516.91;5054129;28;20443;-39
2022/07/05 07:00:23;;;;;;;;;;;;;;;24.67;84.77;99523.56;5055246;28;19932;-39
2022/07/05 07:02:48;;;;;;;;;;;;;;;24.99;86.37;99512.97;5054148;28;19924;-39
2022/07/05 07:05:13;;;;;;;;;;;;;;;25.72;71.95;99507.69;5055009;28;19923;-39
2022/07/05 07:10:23;;;;;;;;;;;;;;;27.12;67.32;99500.47;5053343;28;19991;-39
2022/07/05 07:12:48;;;;;;;;;;;;;;;26.12;69.40;99514.78;5056569;28;20523;-39
2022/07/05 07:15:13;;;;;;;;;;;;;;;25.70;68.84;99514.88;5056547;28;19971;-39
2022/07/05 07:17:38;;;;;;;;;;;;;;;25.60;73.55;99514.88;5056418;28;19931;-39
2022/07/05 07:20:04;;;;;;;;;;;;;;;27.40;66.28;99504.03;5054309;28;19924;-39
2022/07/05 07:22:29;;;;;;;;;;;;;;;27.30;59.20;99508.50;5056335;28;19920;-39
2022/07/05 07:24:54;;;;;;;;;;;;;;;26.95;59.39;99511.75;5041934;28;19921;-39
2022/07/05 07:27:20;;;;;;;;;;;;;;;26.96;58.66;99514.28;5052615;28;19928;-39
2022/07/05 07:29:45;;;;;;;;;;;;;;;27.94;55.71;99506.88;5053906;28;19951;-39
2022/07/05 07:32:10;;;;;;;;;;;;;;;27.81;51.09;99512.47;5056033;28;19920;-39
2022/07/05 07:34:39;;;;;;;;;;;;;;;28.17;51.23;99515.25;5054332;28;19927;-39
2022/07/05 07:37:04;;;;;;;;;;;;;;;29.16;48.90;99517.78;5053337;28;20028;-39
2022/07/05 07:39:31;;;;;;;;;;;;;;;29.64;48.31;99507.59;5054493;28;20612;-39
2022/07/05 07:41:57;;;;;;;;;;;;;;;27.90;49.41;99519.56;5054100;28;19931;-39
2022/07/05 07:44:22;;;;;;;;;;;;;;;27.17;54.56;99526.47;5054742;28;19921;-39
2022/07/05 07:46:47;;;;;;;;;;;;;;;26.93;56.02;99519.81;5053519;28;19924;-39
2022/07/05 07:49:12;;;;;;;;;;;;;;;28.46;53.27;99519.47;5052466;28;20042;-39
2022/07/05 07:51:38;;;;;;;;;;;;;;;27.95;59.33;99527.91;5052640;28;19936;-39
2022/07/05 07:54:03;;;;;;;;;;;;;;;28.73;51.94;99516.78;5054083;28;19923;-39
2022/07/05 07:56:28;;;;;;;;;;;;;;;28.91;50.45;99518.56;5055920;28;19920;-39
2022/07/05 07:58:54;;;;;;;;;;;;;;;27.28;49.10;99519.25;5050197;28;20007;-39
2022/07/05 08:01:19;;;;;;;;;;;;;;;28.44;48.65;99509.06;5053266;28;19924;-39
2022/07/05 08:03:45;;;;;;;;;;;;;;;27.18;54.77;99522.84;5051247;28;19998;-39
2022/07/05 08:06:10;;;;;;;;;;;;;;;27.30;52.10;99519.06;5056324;28;20834;-39
2022/07/05 08:08:36;;;;;;;;;;;;;;;28.00;50.39;99526.63;5054376;28;20058;-39
2022/07/05 08:11:01;;;;;;;;;;;;;;;27.57;50.11;99523.59;5053150;28;19920;-39
2022/07/05 08:13:27;;;;;;;;;;;;;;;28.38;50.38;99519.41;5053133;28;19927;-39
2022/07/05 08:15:52;;;;;;;;;;;;;;;29.52;46.64;99516.84;5052855;28;19923;-39
2022/07/05 08:23:45;;;;;;;;;;;;;;;30.29;43.77;99517.66;5050475;28;21651;-39
2022/07/05 08:26:10;;;;;;;;;;;;;;;29.18;46.64;99521.09;5053137;28;20011;-39
2022/07/05 08:28:35;;;;;;;;;;;;;;;29.81;47.77;99517.31;5052245;28;19921;-39
2022/07/05 08:31:01;;;;;;;;;;;;;;;30.14;45.57;99505.97;5051958;28;21249;-39
2022/07/05 08:33:26;;;;;;;;;;;;;;;29.34;46.82;99516.91;5054799;28;20939;-39
2022/07/05 08:35:51;;;;;;;;;;;;;;;29.55;46.97;99506.72;5054532;28;19921;-39
2022/07/05 08:38:16;;;;;;;;;;;;;;;30.22;46.94;99512.13;5053880;28;19920;-39
2022/07/05 08:40:46;;;;;;;;;;;;;;;31.30;41.54;99502.34;5048564;28;19978;-39
2022/07/05 08:43:11;;;;;;;;;;;;;;;30.67;42.21;99510.03;5052475;28;19920;-39
2022/07/05 08:45:37;;;;;;;;;;;;;;;29.58;43.93;99513.53;5049914;28;19920;-39
2022/07/05 08:48:02;;;;;;;;;;;;;;;30.17;42.63;99502.97;5053390;28;19926;-39
2022/07/05 08:50:27;;;;;;;;;;;;;;;32.22;40.13;99491.97;5051450;28;19917;-39
2022/07/05 08:52:53;;;;;;;;;;;;;;;31.24;40.36;99494.00;5053373;28;19935;-39
2022/07/05 08:55:18;;;;;;;;;;;;;;;32.31;37.54;99490.91;5052107;28;19928;-39
2022/07/05 08:57:43;;;;;;;;;;;;;;;32.40;38.02;99495.16;5050450;28;19945;-39
2022/07/05 09:00:09;;;;;;;;;;;;;;;31.03;39.09;99504.38;5052708;28;19928;-39
2022/07/05 09:02:34;;;;;;;;;;;;;;;29.58;43.31;99495.81;5049470;28;20385;-39
2022/07/05 09:05:00;;;;;;;;;;;;;;;30.08;42.01;99503.94;5051893;28;19926;-39
2022/07/05 09:07:25;;;;;;;;;;;;;;;31.76;37.04;99489.22;5054701;28;19927;-39
2022/07/05 09:09:51;;;;;;;;;;;;;;;30.23;39.52;99497.00;5052638;28;19931;-39
2022/07/05 09:12:16;;;;;;;;;;;;;;;29.31;42.44;99501.28;5053160;28;20117;-39
2022/07/05 09:14:41;;;;;;;;;;;;;;;30.11;41.62;99503.63;5049863;28;19928;-39
2022/07/05 09:17:06;;;;;;;;;;;;;;;29.78;41.76;99501.69;5053999;28;20534;-39
2022/07/05 09:19:32;;;;;;;;;;;;;;;29.49;41.29;99507.38;5054296;28;19920;-39
2022/07/05 09:22:02;;;;;;;;;;;;;;;29.31;40.11;99507.44;5054474;28;19997;-39
2022/07/05 09:24:27;;;;;;;;;;;;;;;28.91;44.28;99510.63;5052342;28;20301;-39
2022/07/05 09:26:52;;;;;;;;;;;;;;;28.00;47.18;99508.09;5053900;28;20003;-39
2022/07/05 09:29:18;;;;;;;;;;;;;;;27.86;47.56;99514.72;5052265;28;19921;-39
2022/07/05 09:31:45;;;;;;;;;;;;;;;26.80;53.39;99527.22;5053562;28;19916;-39
2022/07/05 09:34:11;;;;;;;;;;;;;;;27.10;55.03;99526.22;5051138;28;19960;-39
2022/07/05 09:36:49;;;;;;;;;;;;;;;26.67;52.65;99528.34;5051707;28;19920;-39
2022/07/05 09:39:14;;;;;;;;;;;;;;;26.85;52.36;99527.63;5050470;28;19951;-39
2022/07/05 09:41:40;;;;;;;;;;;;;;;28.74;48.30;99507.84;5051078;28;20672;-39
2022/07/05 09:44:05;;;;;;;;;;;;;;;30.26;43.97;99504.63;5054015;28;19917;-39
2022/07/05 09:46:31;;;;;;;;;;;;;;;30.80;41.79;99505.03;5054386;28;19940;-39
2022/07/05 09:48:56;;;;;;;;;;;;;;;30.02;42.29;99503.59;5052406;28;19916;-39
2022/07/05 09:51:21;;;;;;;;;;;;;;;30.99;38.64;99498.56;5051511;28;20042;-39
2022/07/05 09:53:49;;;;;;;;;;;;;;;28.19;45.15;99507.97;5052377;28;20011;-39
2022/07/05 09:56:14;;;;;;;;;;;;;;;30.37;42.15;99501.69;5053517;28;19920;-39
2022/07/05 09:58:40;;;;;;;;;;;;;;;30.26;41.13;99509.97;5052808;28;20876;-39
2022/07/05 10:01:42;;;;;;;;;;;;;;;29.63;42.46;99513.03;5051035;28;20282;-39
2022/07/05 10:04:08;;;;;;;;;;;;;;;31.81;39.00;99489.50;5006732;28;19920;-39
2022/07/05 10:06:33;;;;;;;;;;;;;;;30.31;40.01;99504.19;5042662;28;20438;-39
2022/07/05 10:08:58;;;;;;;;;;;;;;;28.35;42.34;99513.44;5053705;28;19921;-39
2022/07/05 10:11:24;;;;;;;;;;;;;;;27.56;47.52;99508.69;5052916;28;20431;-39
2022/07/05 10:13:49;;;;;;;;;;;;;;;26.93;53.20;99522.47;5052023;28;20348;-39
2022/07/05 10:16:15;;;;;;;;;;;;;;;29.49;45.98;99496.75;5052037;28;19974;-39
2022/07/05 10:18:41;;;;;;;;;;;;;;;28.63;43.34;99508.09;5053974;28;19948;-39
2022/07/05 10:21:07;;;;;;;;;;;;;;;27.81;45.65;99514.31;5052955;28;19955;-39
2022/07/05 10:23:32;;;;;;;;;;;;;;;29.10;42.89;99505.16;5047859;28;19927;-39
2022/07/05 10:25:57;;;;;;;;;;;;;;;29.16;40.79;99501.88;5054945;28;19916;-39
2022/07/05 10:28:22;;;;;;;;;;;;;;;30.39;39.29;99502.38;5053410;28;20019;-39
2022/07/05 10:30:49;;;;;;;;;;;;;;;30.42;39.44;99499.38;5050974;28;20031;-39
2022/07/05 10:33:15;;;;;;;;;;;;;;;33.05;37.19;99487.66;5052533;28;19925;-39
2022/07/05 10:35:43;;;;;;;;;;;;;;;32.33;35.11;99480.91;5052039;28;19985;-39
2022/07/05 10:38:09;;;;;;;;;;;;;;;32.60;36.12;99489.38;5052637;28;19921;-39
2022/07/05 10:40:34;;;;;;;;;;;;;;;30.52;40.42;99493.06;5050373;28;19920;-39
2022/07/05 10:43:00;;;;;;;;;;;;;;;30.08;39.00;99485.34;5048651;28;20211;-39
2022/07/05 10:45:30;;;;;;;;;;;;;;;28.00;42.31;99498.31;5051234;28;19924;-39
2022/07/05 10:48:14;;;;;;;;;;;;;;;27.06;44.21;99509.78;5052718;28;19958;-39
2022/07/05 10:50:43;;;;;;;;;;;;;;;28.31;42.46;99498.00;5051556;28;19974;-39
2022/07/05 10:53:09;;;;;;;;;;;;;;;27.72;43.25;99492.19;5052497;28;20497;-39
2022/07/05 10:55:46;;;;;;;;;;;;;;;30.35;40.84;99486.91;5049796;28;19920;-39
2022/07/05 10:58:17;;;;;;;;;;;;;;;31.85;37.40;99474.84;5050955;28;19920;-55
2022/07/05 11:00:43;;;;;;;;;;;;;;;31.62;35.80;99480.13;5050529;28;19932;-56
2022/07/05 11:03:27;;;;;;;;;;;;;;;32.28;35.05;99477.94;5050231;28;19921;-56
2022/07/05 11:05:52;;;;;;;;;;;;;;;30.76;37.26;99493.06;5055299;28;19924;-57
2022/07/05 11:08:17;;;;;;;;;;;;;;;29.84;37.77;99481.66;5053531;28;19928;-57
2022/07/05 11:11:03;;;;;;;;;;;;;;;26.61;45.77;99506.91;5055045;28;19982;-57
2022/07/05 11:13:38;;;;;;;;;;;;;;;25.94;52.56;99508.50;5052943;28;20023;-56
2022/07/05 11:16:22;;;;;;;;;;;;;;;25.99;52.99;99498.34;5054145;28;19927;-57
2022/07/05 11:18:51;;;;;;;;;;;;;;;27.28;50.48;99491.97;5054346;28;19927;-57
2022/07/05 11:21:17;;;;;;;;;;;;;;;29.32;46.42;99484.38;5053379;28;20336;-58
2022/07/05 11:23:43;;;;;;;;;;;;;;;28.69;45.67;99483.63;5055259;28;19930;-57
2022/07/05 11:26:08;;;;;;;;;;;;;;;27.56;46.50;99478.78;5053862;28;19924;-57
2022/07/05 11:28:46;;;;;;;;;;;;;;;28.96;43.11;99479.97;5054290;28;19920;-57
2022/07/05 11:31:12;;;;;;;;;;;;;;;31.42;38.60;99469.06;5055884;28;19916;-57
2022/07/05 11:33:44;;;;;;;;;;;;;;;31.01;38.88;99480.59;5054840;28;19920;-57
2022/07/05 11:36:24;;;;;;;;;;;;;;;29.06;41.69;99479.03;5052723;28;19986;-57
2022/07/05 11:39:08;;;;;;;;;;;;;;;28.70;42.70;99469.38;5055159;28;19936;-57
2022/07/05 11:41:34;;;;;;;;;;;;;;;29.60;42.06;99466.41;5050177;28;20012;-57
2022/07/05 11:43:59;;;;;;;;;;;;;;;30.17;40.17;99469.25;5052501;28;19931;-57
2022/07/05 11:46:24;;;;;;;;;;;;;;;28.33;42.18;99477.50;5053541;28;19959;-57
2022/07/05 11:48:50;;;;;;;;;;;;;;;29.27;42.00;99465.47;5053946;28;20363;-57
2022/07/05 11:51:15;;;;;;;;;;;;;;;31.30;37.55;99459.75;5054944;28;20788;-57
2022/07/05 11:53:42;;;;;;;;;;;;;;;31.56;39.78;99470.97;5054390;28;19935;-57
2022/07/05 11:56:07;;;;;;;;;;;;;;;28.12;44.02;99491.00;5056452;28;19927;-57
2022/07/05 11:58:32;;;;;;;;;;;;;;;28.78;42.21;99472.09;5054846;28;19924;-57
2022/07/05 12:00:58;;;;;;;;;;;;;;;29.49;44.08;99475.53;5053285;28;19924;-57
2022/07/05 12:03:23;;;;;;;;;;;;;;;29.74;42.43;99467.66;5054729;28;19965;-57
2022/07/05 12:05:48;;;;;;;;;;;;;;;29.95;41.02;99452.13;5056014;28;19924;-57
2022/07/05 12:08:20;;;;;;;;;;;;;;;30.44;39.46;99468.16;5052270;28;19924;-57
2022/07/05 12:13:30;;;;;;;;;;;;;;;29.12;42.68;99463.38;5054516;28;20007;-56
2022/07/05 12:16:01;;;;;;;;;;;;;;;29.68;39.13;99457.72;5053375;28;19925;-55
2022/07/05 12:18:26;;;;;;;;;;;;;;;30.78;39.07;99447.69;5051887;28;20785;-56
2022/07/05 12:20:51;;;;;;;;;;;;;;;31.08;36.00;99448.84;5051292;28;20676;-56
2022/07/05 12:23:22;;;;;;;;;;;;;;;30.73;38.57;99456.19;5054146;28;19920;-56
2022/07/05 12:25:47;;;;;;;;;;;;;;;29.19;41.66;99459.13;5049286;28;19925;-56
2022/07/05 12:28:14;;;;;;;;;;;;;;;30.47;38.90;99452.88;5054063;28;19921;-56
2022/07/05 12:30:39;;;;;;;;;;;;;;;29.74;39.80;99463.22;5051620;28;20813;-56
2022/07/05 12:33:05;;;;;;;;;;;;;;;28.86;40.11;99457.22;5054079;28;19924;-55
2022/07/05 12:35:33;;;;;;;;;;;;;;;30.00;38.40;99457.78;5052217;28;20615;-56
2022/07/05 12:38:06;;;;;;;;;;;;;;;29.31;37.92;99456.19;5050562;28;19924;-56
2022/07/05 12:40:31;;;;;;;;;;;;;;;28.13;39.94;99461.72;5048853;28;20361;-56
2022/07/05 12:43:03;;;;;;;;;;;;;;;28.33;40.60;99453.66;5052606;28;19970;-56
2022/07/05 12:45:29;;;;;;;;;;;;;;;28.66;38.67;99452.09;5050262;28;20575;-56
2022/07/05 12:47:55;;;;;;;;;;;;;;;29.58;38.88;99447.16;5030425;28;20276;-56
2022/07/05 12:50:21;;;;;;;;;;;;;;;31.76;36.67;99433.28;5050461;28;19920;-56
2022/07/05 12:58:44;;;;;;;;;;;;;;;29.91;36.73;99450.78;5049623;28;19969;-56
2022/07/05 13:01:22;;;;;;;;;;;;;;;30.18;34.88;99454.16;5053852;28;19928;-57